AAL863 MKJS-KCLT
Flight info
| Callsign | AAL863 |
|---|---|
| Flight time | N/A |
| Altitude | 36000 |
| Route | ELUTU5 HAWLS DCT EPSIM UM779 ZEUSS Y217 OCTAL Q77 MATLK Q87 ZERBO/N0455F370 Q87 VIYAP Q69 ISUZO Q409 KONEY Q83 WURFL DCT CHECR STOCR4 |
| Aircraft | B738/M-SDE2E3FGHIRWXY/LB1 |
Departure
| Time | N/A |
|---|---|
| Airport | Sangster International Airport (MKJS) |
Arrival
| Time | 2026-05-04 05:59 |
|---|---|
| Airport | Charlotte Douglas International Airport (KCLT) |
| Time | Latitude | Longitude | Altitude | Speed | Heading |
|---|---|---|---|---|---|
| 2026-05-04 05:31 | 34.86199 | -80.59086 | 36124 ft | 361 kts | 314° |
| 2026-05-04 05:31 | 34.88110 | -80.61064 | 36090 ft | 357 kts | 309° |
| 2026-05-04 05:32 | 34.89488 | -80.63474 | 35657 ft | 345 kts | 286° |
| 2026-05-04 05:32 | 34.89827 | -80.66294 | 35182 ft | 341 kts | 262° |
| 2026-05-04 05:32 | 34.89043 | -80.69042 | 34742 ft | 348 kts | 239° |
| 2026-05-04 05:33 | 34.85584 | -80.73382 | 33317 ft | 369 kts | 229° |
| 2026-05-04 05:33 | 34.83709 | -80.75544 | 32555 ft | 377 kts | 229° |
| 2026-05-04 05:33 | 34.81770 | -80.77732 | 32016 ft | 378 kts | 229° |
| 2026-05-04 05:33 | 34.79840 | -80.79885 | 31640 ft | 375 kts | 229° |
| 2026-05-04 05:34 | 34.77887 | -80.82008 | 31064 ft | 380 kts | 227° |
| 2026-05-04 05:34 | 34.75539 | -80.83572 | 30657 ft | 398 kts | 204° |
| 2026-05-04 05:34 | 34.72705 | -80.83944 | 30244 ft | 416 kts | 182° |
| 2026-05-04 05:34 | 34.69897 | -80.83061 | 29651 ft | 436 kts | 160° |
| 2026-05-04 05:35 | 34.67384 | -80.80969 | 29314 ft | 440 kts | 142° |
| 2026-05-04 05:35 | 34.65190 | -80.78351 | 29022 ft | 436 kts | 137° |
| 2026-05-04 05:35 | 34.63086 | -80.75736 | 28642 ft | 434 kts | 137° |
| 2026-05-04 05:35 | 34.60992 | -80.73131 | 28304 ft | 430 kts | 137° |
| 2026-05-04 05:36 | 34.58910 | -80.70533 | 27946 ft | 427 kts | 137° |
| 2026-05-04 05:36 | 34.56853 | -80.67958 | 27603 ft | 424 kts | 137° |
| 2026-05-04 05:36 | 34.54825 | -80.65409 | 27261 ft | 420 kts | 137° |
| 2026-05-04 05:36 | 34.52801 | -80.62860 | 26901 ft | 417 kts | 137° |
| 2026-05-04 05:37 | 34.50783 | -80.60312 | 26590 ft | 413 kts | 137° |
| 2026-05-04 05:37 | 34.48840 | -80.57836 | 26282 ft | 409 kts | 137° |
| 2026-05-04 05:37 | 34.46876 | -80.55327 | 25937 ft | 406 kts | 137° |
| 2026-05-04 05:38 | 34.44462 | -80.49271 | 25229 ft | 407 kts | 94° |
| 2026-05-04 05:38 | 34.44764 | -80.45909 | 24849 ft | 401 kts | 70° |
| 2026-05-04 05:38 | 34.46040 | -80.42996 | 24472 ft | 388 kts | 46° |
| 2026-05-04 05:38 | 34.48064 | -80.40960 | 24086 ft | 372 kts | 22° |
| 2026-05-04 05:39 | 34.50447 | -80.40138 | 23812 ft | 346 kts | 356° |
| 2026-05-04 05:39 | 34.54856 | -80.41598 | 22729 ft | 325 kts | 329° |
| 2026-05-04 05:39 | 34.56577 | -80.43235 | 22082 ft | 316 kts | 303° |
| 2026-05-04 05:40 | 34.57241 | -80.47923 | 21081 ft | 310 kts | 253° |
| 2026-05-04 05:40 | 34.56168 | -80.50004 | 20564 ft | 319 kts | 228° |
| 2026-05-04 05:40 | 34.54246 | -80.51373 | 20030 ft | 332 kts | 201° |
| 2026-05-04 05:41 | 34.51878 | -80.51534 | 19473 ft | 346 kts | 175° |
| 2026-05-04 05:41 | 34.49645 | -80.50392 | 18958 ft | 357 kts | 148° |
| 2026-05-04 05:41 | 34.47960 | -80.48180 | 18364 ft | 361 kts | 121° |
| 2026-05-04 05:41 | 34.47154 | -80.45355 | 17773 ft | 354 kts | 94° |
| 2026-05-04 05:42 | 34.47210 | -80.42422 | 17351 ft | 343 kts | 78° |
| 2026-05-04 05:42 | 34.47971 | -80.39774 | 16805 ft | 329 kts | 51° |
| 2026-05-04 05:42 | 34.49554 | -80.37903 | 16201 ft | 315 kts | 24° |
| 2026-05-04 05:42 | 34.51594 | -80.37195 | 15619 ft | 301 kts | 355° |
| 2026-05-04 05:43 | 34.53605 | -80.37730 | 15148 ft | 290 kts | 334° |
| 2026-05-04 05:43 | 34.55404 | -80.38770 | 14689 ft | 286 kts | 330° |
| 2026-05-04 05:43 | 34.57130 | -80.39919 | 14191 ft | 285 kts | 327° |
| 2026-05-04 05:45 | 34.68543 | -80.48655 | 11449 ft | 272 kts | 327° |
| 2026-05-04 05:45 | 34.70123 | -80.49892 | 11359 ft | 268 kts | 326° |
| 2026-05-04 05:47 | 34.81201 | -80.58594 | 11012 ft | 271 kts | 326° |
| 2026-05-04 05:47 | 34.82763 | -80.59830 | 10959 ft | 271 kts | 326° |
| 2026-05-04 05:47 | 34.84359 | -80.61095 | 10905 ft | 271 kts | 326° |
| 2026-05-04 05:48 | 34.85937 | -80.62347 | 10854 ft | 271 kts | 326° |
| 2026-05-04 05:48 | 34.87506 | -80.63594 | 10794 ft | 270 kts | 326° |
| 2026-05-04 05:48 | 34.89079 | -80.64844 | 10739 ft | 270 kts | 326° |
| 2026-05-04 05:48 | 34.90645 | -80.66090 | 10692 ft | 270 kts | 326° |
| 2026-05-04 05:49 | 34.92221 | -80.67346 | 10645 ft | 270 kts | 326° |
| 2026-05-04 05:49 | 34.93789 | -80.68595 | 10597 ft | 270 kts | 326° |
| 2026-05-04 05:49 | 34.95374 | -80.69858 | 10548 ft | 269 kts | 326° |
| 2026-05-04 05:49 | 34.96881 | -80.71060 | 10501 ft | 269 kts | 326° |
| 2026-05-04 05:51 | 35.06664 | -80.80206 | 10169 ft | 257 kts | 318° |
| 2026-05-04 05:51 | 35.08116 | -80.81387 | 10118 ft | 248 kts | 335° |
| 2026-05-04 05:52 | 35.10296 | -80.82064 | 10065 ft | 237 kts | 348° |
| 2026-05-04 05:52 | 35.11377 | -80.82249 | 10036 ft | 231 kts | 350° |
| 2026-05-04 05:52 | 35.12950 | -80.82440 | 9987 ft | 225 kts | 352° |
| 2026-05-04 05:52 | 35.14503 | -80.82582 | 9933 ft | 222 kts | 353° |
| 2026-05-04 05:53 | 35.16039 | -80.82711 | 9626 ft | 226 kts | 353° |
| 2026-05-04 05:54 | 35.28026 | -80.83722 | 6467 ft | 266 kts | 352° |
| 2026-05-04 05:55 | 35.29891 | -80.83880 | 5979 ft | 270 kts | 353° |
| 2026-05-04 05:55 | 35.31762 | -80.84132 | 5422 ft | 274 kts | 341° |
| 2026-05-04 05:55 | 35.33298 | -80.85400 | 5141 ft | 258 kts | 307° |
| 2026-05-04 05:55 | 35.33859 | -80.87284 | 5123 ft | 231 kts | 276° |
| 2026-05-04 05:56 | 35.33743 | -80.89189 | 4912 ft | 214 kts | 270° |
| 2026-05-04 05:56 | 35.33689 | -80.91003 | 4254 ft | 217 kts | 269° |
| 2026-05-04 05:56 | 35.33467 | -80.92853 | 3490 ft | 223 kts | 250° |
| 2026-05-04 05:56 | 35.32520 | -80.94313 | 2858 ft | 221 kts | 210° |
| 2026-05-04 05:57 | 35.31078 | -80.94642 | 2599 ft | 211 kts | 176° |
| 2026-05-04 05:57 | 35.29656 | -80.94355 | 2300 ft | 203 kts | 176° |
| 2026-05-04 05:57 | 35.28293 | -80.94119 | 2019 ft | 192 kts | 178° |
| 2026-05-04 05:57 | 35.26996 | -80.94002 | 1737 ft | 180 kts | 180° |
| 2026-05-04 05:58 | 35.25814 | -80.93903 | 1499 ft | 162 kts | 179° |
| 2026-05-04 05:58 | 35.24732 | -80.93811 | 1234 ft | 150 kts | 178° |
| 2026-05-04 05:58 | 35.23730 | -80.93724 | 1057 ft | 139 kts | 176° |
| 2026-05-04 05:58 | 35.22781 | -80.93641 | 833 ft | 136 kts | 175° |
| 2026-05-04 05:59 | 35.21874 | -80.93549 | 758 ft | 122 kts | 179° |
| 2026-05-04 05:59 | 35.21202 | -80.93507 | 756 ft | 60 kts | 176° |
| 2026-05-04 05:59 | 35.20865 | -80.93479 | 756 ft | 33 kts | 179° |
| 2026-05-04 05:59 | 35.20800 | -80.93548 | 756 ft | 8 kts | 267° |
| 2026-05-04 06:00 | 35.20817 | -80.93597 | 756 ft | 4 kts | 329° |
| 2026-05-04 06:00 | 35.20835 | -80.93606 | 756 ft | 3 kts | 341° |
| 2026-05-04 06:00 | 35.20884 | -80.93621 | 756 ft | 9 kts | 354° |
| 2026-05-04 06:00 | 35.20935 | -80.93627 | 756 ft | 6 kts | 354° |
| 2026-05-04 06:01 | 35.20971 | -80.93630 | 756 ft | 6 kts | 356° |
| 2026-05-04 06:01 | 35.21033 | -80.93634 | 756 ft | 13 kts | 356° |
| 2026-05-04 06:03 | 35.21649 | -80.93742 | 756 ft | 3 kts | 311° |
| 2026-05-04 06:03 | 35.21663 | -80.93761 | 756 ft | 10 kts | 311° |
| 2026-05-04 06:05 | 35.21822 | -80.94136 | 756 ft | 0 kts | 272° |